Time;durP1;ratioP1;P1;durP2;ratioP2;P2;SDS_P1;SDS_P2;PMS_P1;PMS_P2;Temp;Humidity;BMP_temperature;BMP_pressure;BME280_temperature;BME280_humidity;BME280_pressure;Samples;Min_cycle;Max_cycle;Signal;HPM_P1;HPM_P2
2021/09/19 00:00:14;;;;;;;;;8.25;8.00;;;;;;;;5094280;27;45555;-80
2021/09/19 00:02:39;;;;;;;;;8.75;7.00;;;;;;;;5092127;27;45409;-80
2021/09/19 00:05:05;;;;;;;;;9.67;8.33;;;;;;;;5092955;27;46043;-80
2021/09/19 00:07:31;;;;;;;;;9.00;8.25;;;;;;;;5095480;27;46490;-80
2021/09/19 00:09:56;;;;;;;;;8.00;6.33;;;;;;;;5097150;27;45474;-78
2021/09/19 00:12:21;;;;;;;;;7.67;7.67;;;;;;;;5095237;27;45357;-80
2021/09/19 00:14:46;;;;;;;;;9.33;8.00;;;;;;;;5089719;27;45570;-80
2021/09/19 00:17:12;;;;;;;;;10.00;9.00;;;;;;;;5093631;27;45767;-79
2021/09/19 00:19:37;;;;;;;;;9.00;9.00;;;;;;;;5095407;27;45647;-79
2021/09/19 00:22:02;;;;;;;;;12.00;9.67;;;;;;;;5094989;27;45553;-80
2021/09/19 00:24:27;;;;;;;;;10.75;9.50;;;;;;;;5095475;27;46306;-80
2021/09/19 00:26:53;;;;;;;;;11.67;11.33;;;;;;;;5096650;27;45512;-80
2021/09/19 00:29:18;;;;;;;;;11.67;11.00;;;;;;;;5094074;27;45500;-80
2021/09/19 00:31:43;;;;;;;;;10.00;8.67;;;;;;;;5093062;27;45406;-81
2021/09/19 00:34:08;;;;;;;;;14.00;12.33;;;;;;;;5093318;27;46237;-80
2021/09/19 00:36:33;;;;;;;;;12.33;12.33;;;;;;;;5092091;27;45518;-80
2021/09/19 00:38:59;;;;;;;;;10.00;10.00;;;;;;;;5095736;27;45444;-78
2021/09/19 00:41:24;;;;;;;;;12.50;11.50;;;;;;;;5093409;27;45476;-80
2021/09/19 00:43:49;;;;;;;;;9.25;9.25;;;;;;;;5091538;27;45568;-80
2021/09/19 00:46:14;;;;;;;;;10.33;10.33;;;;;;;;5095675;27;45539;-79
2021/09/19 00:48:40;;;;;;;;;11.33;11.33;;;;;;;;5096742;27;45399;-80
2021/09/19 00:51:05;;;;;;;;;13.67;10.67;;;;;;;;5093753;27;45470;-80
2021/09/19 00:53:35;;;;;;;;;10.75;10.00;;;;;;;;5089006;27;45798;-79
2021/09/19 00:56:02;;;;;;;;;12.25;10.75;;;;;;;;5087710;27;45699;-80
2021/09/19 00:58:28;;;;;;;;;10.50;10.50;;;;;;;;5091804;27;45595;-80
2021/09/19 01:00:53;;;;;;;;;13.25;12.25;;;;;;;;5094208;27;45487;-80
2021/09/19 01:03:19;;;;;;;;;12.00;12.00;;;;;;;;5091163;27;47040;-79
2021/09/19 01:05:44;;;;;;;;;11.25;10.00;;;;;;;;5092969;27;45949;-80
2021/09/19 01:08:12;;;;;;;;;9.50;9.50;;;;;;;;5090661;27;45368;-80
2021/09/19 01:10:38;;;;;;;;;12.25;10.00;;;;;;;;5091041;27;45429;-80
2021/09/19 01:13:03;;;;;;;;;12.00;10.75;;;;;;;;5094546;27;45957;-80
2021/09/19 01:15:29;;;;;;;;;11.67;10.00;;;;;;;;5093893;27;45507;-80
2021/09/19 01:17:55;;;;;;;;;14.50;8.25;;;;;;;;5093517;27;45480;-79
2021/09/19 01:20:20;;;;;;;;;11.00;9.00;;;;;;;;5091710;27;45471;-80
2021/09/19 01:22:57;;;;;;;;;11.25;10.00;;;;;;;;5091884;27;46962;-80
2021/09/19 01:25:22;;;;;;;;;12.25;11.25;;;;;;;;5097290;27;45681;-80
2021/09/19 01:27:48;;;;;;;;;10.00;8.67;;;;;;;;5094951;27;45805;-80
2021/09/19 01:30:13;;;;;;;;;11.00;11.00;;;;;;;;5096073;27;45604;-80
2021/09/19 01:32:40;;;;;;;;;12.00;9.00;;;;;;;;5099502;27;46616;-80
2021/09/19 01:35:05;;;;;;;;;12.00;9.25;;;;;;;;5091036;27;45778;-79
2021/09/19 01:37:30;;;;;;;;;13.00;10.00;;;;;;;;5098519;27;45575;-80
2021/09/19 01:39:56;;;;;;;;;9.33;9.33;;;;;;;;5097201;27;45519;-80
2021/09/19 01:42:21;;;;;;;;;12.00;12.00;;;;;;;;5096435;27;45572;-80
2021/09/19 01:44:46;;;;;;;;;12.00;10.67;;;;;;;;5093077;27;45474;-80
2021/09/19 01:47:11;;;;;;;;;11.00;9.33;;;;;;;;5093848;27;45526;-80
2021/09/19 01:49:43;;;;;;;;;11.00;10.00;;;;;;;;5095568;27;45782;-79
2021/09/19 01:52:08;;;;;;;;;12.00;10.00;;;;;;;;5093071;27;45540;-80
2021/09/19 01:54:34;;;;;;;;;14.00;10.67;;;;;;;;5093485;27;45524;-80
2021/09/19 01:56:59;;;;;;;;;14.00;11.25;;;;;;;;5084359;27;45507;-80
2021/09/19 01:59:24;;;;;;;;;9.67;8.67;;;;;;;;5095571;27;45463;-80
2021/09/19 02:01:49;;;;;;;;;10.75;10.75;;;;;;;;5092626;27;46385;-80
2021/09/19 02:04:15;;;;;;;;;12.00;8.67;;;;;;;;5102198;27;45516;-80
2021/09/19 02:06:40;;;;;;;;;15.67;12.33;;;;;;;;5094818;27;45504;-80
2021/09/19 02:09:05;;;;;;;;;9.33;9.33;;;;;;;;5093880;27;46045;-80
2021/09/19 02:11:30;;;;;;;;;14.67;12.67;;;;;;;;5094442;27;45655;-80
2021/09/19 02:13:57;;;;;;;;;15.00;10.33;;;;;;;;5092214;27;45452;-80
2021/09/19 02:16:23;;;;;;;;;8.25;7.75;;;;;;;;5097354;27;45607;-80
2021/09/19 02:18:49;;;;;;;;;12.75;9.75;;;;;;;;5097489;27;45746;-80
2021/09/19 02:21:15;;;;;;;;;13.50;11.00;;;;;;;;5096638;27;46783;-80
2021/09/19 02:23:40;;;;;;;;;11.25;9.50;;;;;;;;5095609;27;45363;-80
2021/09/19 02:26:07;;;;;;;;;11.00;10.00;;;;;;;;5091170;27;45897;-80
2021/09/19 02:28:32;;;;;;;;;10.50;10.50;;;;;;;;5094414;27;45496;-80
2021/09/19 02:30:57;;;;;;;;;13.75;10.75;;;;;;;;5096553;27;48340;-80
2021/09/19 02:33:23;;;;;;;;;12.00;8.25;;;;;;;;5095843;27;45575;-80
2021/09/19 02:35:48;;;;;;;;;13.33;12.33;;;;;;;;5085508;27;45640;-79
2021/09/19 02:38:13;;;;;;;;;10.00;9.67;;;;;;;;5092367;27;46021;-80
2021/09/19 02:40:38;;;;;;;;;15.33;11.33;;;;;;;;5100253;27;45963;-79
2021/09/19 02:43:03;;;;;;;;;14.00;11.50;;;;;;;;5097098;27;45535;-80
2021/09/19 02:45:29;;;;;;;;;16.00;12.00;;;;;;;;5093889;27;45591;-80
2021/09/19 02:47:54;;;;;;;;;12.67;9.33;;;;;;;;5091840;27;45477;-80
2021/09/19 02:50:21;;;;;;;;;9.75;9.75;;;;;;;;5093638;27;45747;-80
2021/09/19 02:52:47;;;;;;;;;11.00;11.00;;;;;;;;5100415;27;45389;-80
2021/09/19 02:55:13;;;;;;;;;14.00;14.00;;;;;;;;5093758;27;45467;-80
2021/09/19 02:57:38;;;;;;;;;14.50;12.50;;;;;;;;5099459;27;45539;-80
2021/09/19 03:00:05;;;;;;;;;14.00;12.50;;;;;;;;5095235;27;45489;-80
2021/09/19 03:02:30;;;;;;;;;13.00;13.00;;;;;;;;5091719;27;46187;-80
2021/09/19 03:04:55;;;;;;;;;13.67;12.67;;;;;;;;5090276;27;45463;-79
2021/09/19 03:07:20;;;;;;;;;16.67;13.67;;;;;;;;5096207;27;45515;-80
2021/09/19 03:09:46;;;;;;;;;14.33;12.67;;;;;;;;5091627;27;46018;-80
2021/09/19 03:12:11;;;;;;;;;14.33;12.67;;;;;;;;5099986;27;45508;-80
2021/09/19 03:14:36;;;;;;;;;14.67;13.33;;;;;;;;5091744;27;45386;-80
2021/09/19 03:17:01;;;;;;;;;14.00;12.67;;;;;;;;5092235;27;45382;-80
2021/09/19 03:19:26;;;;;;;;;12.67;12.33;;;;;;;;5093899;27;47021;-80
2021/09/19 03:21:52;;;;;;;;;14.33;12.33;;;;;;;;5090459;27;45576;-80
2021/09/19 03:24:17;;;;;;;;;15.67;14.33;;;;;;;;5095015;27;45571;-80
2021/09/19 03:26:42;;;;;;;;;19.00;15.00;;;;;;;;5094050;27;45500;-80
2021/09/19 03:29:07;;;;;;;;;15.00;14.00;;;;;;;;5087884;27;46650;-80
2021/09/19 03:31:32;;;;;;;;;16.00;12.67;;;;;;;;5097960;27;45745;-80
2021/09/19 03:33:58;;;;;;;;;17.00;15.67;;;;;;;;5098101;27;45613;-79
2021/09/19 03:36:23;;;;;;;;;14.00;13.00;;;;;;;;5093532;27;45519;-80
2021/09/19 03:38:48;;;;;;;;;15.50;14.00;;;;;;;;5096815;27;46121;-80
2021/09/19 03:41:14;;;;;;;;;16.33;15.67;;;;;;;;5091304;27;45445;-80
2021/09/19 03:43:40;;;;;;;;;14.00;14.00;;;;;;;;5093651;27;45395;-79
2021/09/19 03:46:05;;;;;;;;;14.75;13.00;;;;;;;;5095636;27;45597;-80
2021/09/19 03:48:30;;;;;;;;;14.67;13.67;;;;;;;;5092301;27;46375;-80
2021/09/19 03:50:55;;;;;;;;;15.33;13.33;;;;;;;;5091495;27;45473;-80
2021/09/19 03:53:21;;;;;;;;;17.33;14.00;;;;;;;;5095089;27;45450;-80
2021/09/19 03:55:46;;;;;;;;;16.33;15.00;;;;;;;;5091121;27;45509;-80
2021/09/19 03:58:11;;;;;;;;;17.33;16.00;;;;;;;;5095095;27;45457;-80
2021/09/19 04:00:36;;;;;;;;;16.00;14.75;;;;;;;;5091099;27;45533;-80
2021/09/19 04:03:02;;;;;;;;;22.50;17.25;;;;;;;;5089187;27;45521;-80
2021/09/19 04:05:27;;;;;;;;;14.25;12.75;;;;;;;;5097354;27;45524;-80
2021/09/19 04:07:52;;;;;;;;;18.00;15.33;;;;;;;;5094921;27;45582;-80
2021/09/19 04:10:17;;;;;;;;;24.00;19.00;;;;;;;;5096581;27;45502;-80
2021/09/19 04:12:43;;;;;;;;;15.00;13.33;;;;;;;;5092452;27;45367;-80
2021/09/19 04:15:08;;;;;;;;;21.75;18.25;;;;;;;;5090189;27;45600;-81
2021/09/19 04:17:34;;;;;;;;;16.75;15.00;;;;;;;;5092952;27;46786;-80
2021/09/19 04:19:59;;;;;;;;;20.67;19.33;;;;;;;;5091453;27;45569;-80
2021/09/19 04:22:25;;;;;;;;;16.67;16.00;;;;;;;;5097237;27;45377;-80
2021/09/19 04:24:50;;;;;;;;;18.25;16.25;;;;;;;;5093205;27;45475;-80
2021/09/19 04:27:15;;;;;;;;;21.50;20.25;;;;;;;;5088235;27;46347;-80
2021/09/19 04:29:41;;;;;;;;;17.67;16.67;;;;;;;;5090291;27;45362;-80
2021/09/19 04:32:06;;;;;;;;;19.33;19.33;;;;;;;;5089046;27;45534;-80
2021/09/19 04:34:31;;;;;;;;;22.00;19.67;;;;;;;;5091001;27;45552;-80
2021/09/19 04:36:56;;;;;;;;;20.67;17.00;;;;;;;;5097233;27;46153;-80
2021/09/19 04:39:22;;;;;;;;;23.00;18.00;;;;;;;;5093891;27;46717;-80
2021/09/19 04:41:47;;;;;;;;;21.67;18.33;;;;;;;;5090858;27;45596;-80
2021/09/19 04:44:12;;;;;;;;;18.33;16.00;;;;;;;;5091914;27;45468;-80
2021/09/19 04:46:37;;;;;;;;;21.67;17.67;;;;;;;;5089097;27;46780;-80
2021/09/19 04:49:03;;;;;;;;;24.00;18.67;;;;;;;;5094629;27;45448;-80
2021/09/19 04:51:28;;;;;;;;;14.75;14.75;;;;;;;;5091412;27;45818;-80
2021/09/19 04:53:53;;;;;;;;;20.00;18.00;;;;;;;;5092330;27;45379;-80
2021/09/19 04:56:19;;;;;;;;;17.33;16.33;;;;;;;;5086032;27;45455;-80
2021/09/19 04:58:44;;;;;;;;;17.75;16.25;;;;;;;;5094006;27;45641;-80
2021/09/19 05:01:09;;;;;;;;;18.00;15.67;;;;;;;;5094407;27;45501;-80
2021/09/19 05:03:34;;;;;;;;;16.50;14.00;;;;;;;;5095094;27;45507;-80
2021/09/19 05:05:59;;;;;;;;;17.33;15.00;;;;;;;;5097983;27;46132;-79
2021/09/19 05:08:25;;;;;;;;;20.33;16.33;;;;;;;;5098666;27;45472;-79
2021/09/19 05:10:51;;;;;;;;;17.00;15.00;;;;;;;;5093921;27;45745;-79
2021/09/19 05:13:16;;;;;;;;;23.00;17.75;;;;;;;;5102500;27;45545;-79
2021/09/19 05:15:41;;;;;;;;;20.33;15.33;;;;;;;;5094572;27;46088;-79
2021/09/19 05:18:06;;;;;;;;;17.00;16.00;;;;;;;;5096893;27;45486;-79
2021/09/19 05:20:31;;;;;;;;;17.67;16.33;;;;;;;;5096998;27;45468;-81
2021/09/19 05:22:57;;;;;;;;;18.67;18.33;;;;;;;;5093697;27;45437;-79
2021/09/19 05:25:22;;;;;;;;;16.67;16.33;;;;;;;;5102456;27;45548;-80
2021/09/19 05:27:47;;;;;;;;;17.00;16.00;;;;;;;;5098026;27;45462;-81
2021/09/19 05:30:12;;;;;;;;;17.00;16.00;;;;;;;;5093048;27;45543;-81
2021/09/19 05:32:38;;;;;;;;;15.75;14.25;;;;;;;;5095862;27;46554;-80
2021/09/19 05:35:04;;;;;;;;;18.00;15.33;;;;;;;;5091546;27;46963;-81
2021/09/19 05:37:29;;;;;;;;;17.00;14.75;;;;;;;;5097428;27;46031;-80
2021/09/19 05:39:54;;;;;;;;;16.00;15.00;;;;;;;;5092039;27;45728;-81
2021/09/19 05:42:19;;;;;;;;;17.67;14.33;;;;;;;;5098001;27;45707;-81
2021/09/19 05:44:44;;;;;;;;;13.67;13.00;;;;;;;;5090989;27;46349;-81
2021/09/19 05:47:10;;;;;;;;;17.33;15.67;;;;;;;;5094478;27;45592;-81
2021/09/19 05:49:35;;;;;;;;;17.33;14.00;;;;;;;;5093516;27;45580;-81
2021/09/19 05:52:00;;;;;;;;;13.33;12.00;;;;;;;;5095883;27;45437;-80
2021/09/19 05:54:25;;;;;;;;;19.67;15.33;;;;;;;;5097697;27;45519;-80
2021/09/19 05:56:50;;;;;;;;;15.67;14.33;;;;;;;;5095470;27;45373;-80
2021/09/19 05:59:16;;;;;;;;;14.33;13.67;;;;;;;;5094647;27;45668;-80
2021/09/19 06:01:41;;;;;;;;;14.67;14.67;;;;;;;;5097390;27;45335;-80
2021/09/19 06:04:06;;;;;;;;;11.67;11.67;;;;;;;;5100083;27;45517;-81
2021/09/19 06:06:31;;;;;;;;;14.50;14.50;;;;;;;;5097493;27;45591;-80
2021/09/19 06:08:57;;;;;;;;;14.00;13.75;;;;;;;;5096985;27;45457;-80
2021/09/19 06:11:22;;;;;;;;;14.75;10.75;;;;;;;;5093821;27;45442;-80
2021/09/19 06:13:47;;;;;;;;;19.67;13.33;;;;;;;;5094653;27;45722;-80
2021/09/19 06:16:12;;;;;;;;;17.00;14.00;;;;;;;;5097624;27;45536;-80
2021/09/19 06:18:38;;;;;;;;;16.67;13.33;;;;;;;;5092812;27;45460;-80
2021/09/19 06:21:03;;;;;;;;;17.50;16.00;;;;;;;;5096965;27;45460;-79
2021/09/19 06:23:30;;;;;;;;;21.25;14.50;;;;;;;;5095595;27;45696;-80
2021/09/19 06:25:55;;;;;;;;;17.25;16.25;;;;;;;;5091492;27;45885;-80
2021/09/19 06:28:20;;;;;;;;;15.00;14.00;;;;;;;;5099123;27;45578;-79
2021/09/19 06:30:45;;;;;;;;;20.33;14.33;;;;;;;;5094463;27;45496;-80
2021/09/19 06:33:11;;;;;;;;;15.00;12.33;;;;;;;;5095567;27;45795;-79
2021/09/19 06:35:36;;;;;;;;;17.33;13.33;;;;;;;;5095116;27;46676;-80
2021/09/19 06:38:01;;;;;;;;;15.00;13.33;;;;;;;;5093080;27;45405;-80
2021/09/19 06:40:26;;;;;;;;;20.00;13.00;;;;;;;;5098959;27;45566;-79
2021/09/19 06:42:51;;;;;;;;;14.67;13.00;;;;;;;;5090054;27;46195;-80
2021/09/19 06:45:17;;;;;;;;;21.00;15.67;;;;;;;;5089186;27;46060;-80
2021/09/19 06:47:42;;;;;;;;;16.00;15.67;;;;;;;;5094016;27;46187;-79
2021/09/19 06:50:09;;;;;;;;;18.75;16.75;;;;;;;;5098561;27;45509;-80
2021/09/19 06:52:34;;;;;;;;;14.75;14.75;;;;;;;;5094598;27;45995;-80
2021/09/19 06:54:59;;;;;;;;;16.25;13.50;;;;;;;;5089657;27;45576;-80
2021/09/19 06:57:24;;;;;;;;;15.67;15.67;;;;;;;;5100016;27;45659;-80
2021/09/19 06:59:50;;;;;;;;;20.00;15.00;;;;;;;;5094652;27;46150;-79
2021/09/19 07:02:15;;;;;;;;;17.33;15.67;;;;;;;;5096263;27;46042;-80
2021/09/19 07:04:40;;;;;;;;;13.33;13.33;;;;;;;;5093364;27;46128;-80
2021/09/19 07:07:05;;;;;;;;;17.33;16.00;;;;;;;;5092793;27;45392;-80
2021/09/19 07:09:30;;;;;;;;;17.33;13.33;;;;;;;;5097556;27;45619;-80
2021/09/19 07:11:56;;;;;;;;;16.33;13.33;;;;;;;;5092284;27;45486;-79
2021/09/19 07:14:21;;;;;;;;;17.00;14.00;;;;;;;;5091636;27;45619;-80
2021/09/19 07:16:46;;;;;;;;;14.00;12.67;;;;;;;;5091461;27;46815;-80
2021/09/19 07:19:11;;;;;;;;;15.33;13.67;;;;;;;;5093978;27;45503;-79
2021/09/19 07:21:36;;;;;;;;;17.00;16.00;;;;;;;;5094250;27;47137;-79
2021/09/19 07:24:02;;;;;;;;;12.33;10.67;;;;;;;;5094096;27;45581;-79
2021/09/19 07:26:27;;;;;;;;;13.50;12.50;;;;;;;;5089146;27;45467;-80
2021/09/19 07:28:52;;;;;;;;;13.33;12.67;;;;;;;;5091418;27;45741;-79
2021/09/19 07:31:18;;;;;;;;;15.00;13.25;;;;;;;;5093805;27;45554;-79
2021/09/19 07:33:43;;;;;;;;;12.33;12.33;;;;;;;;5089374;27;45544;-79
2021/09/19 07:36:08;;;;;;;;;16.50;15.00;;;;;;;;5093835;27;45911;-80
2021/09/19 07:38:34;;;;;;;;;16.25;12.50;;;;;;;;5080312;27;45364;-80
2021/09/19 07:40:59;;;;;;;;;14.25;12.75;;;;;;;;5092310;27;46222;-79
2021/09/19 07:43:25;;;;;;;;;18.00;14.00;;;;;;;;5091463;27;45531;-79
2021/09/19 07:45:50;;;;;;;;;15.75;15.00;;;;;;;;5094348;27;45573;-80
2021/09/19 07:48:17;;;;;;;;;15.25;13.50;;;;;;;;5095475;27;45421;-80
2021/09/19 07:50:42;;;;;;;;;15.25;13.25;;;;;;;;5089423;27;47360;-79
2021/09/19 07:53:08;;;;;;;;;12.75;12.75;;;;;;;;5090063;27;45451;-79
2021/09/19 07:55:34;;;;;;;;;14.50;12.25;;;;;;;;5095896;27;45413;-80
2021/09/19 07:57:59;;;;;;;;;13.25;13.25;;;;;;;;5094262;27;45540;-79
2021/09/19 08:00:24;;;;;;;;;14.00;13.00;;;;;;;;5091338;27;48417;-80
2021/09/19 08:02:51;;;;;;;;;16.75;12.75;;;;;;;;5093623;27;45512;-78
2021/09/19 08:05:16;;;;;;;;;13.00;11.00;;;;;;;;5091601;27;45711;-80
2021/09/19 08:07:42;;;;;;;;;17.75;12.50;;;;;;;;5091566;27;45491;-80
2021/09/19 08:10:08;;;;;;;;;16.75;13.50;;;;;;;;5093772;27;45840;-80
2021/09/19 08:12:33;;;;;;;;;14.50;11.25;;;;;;;;5090697;27;45552;-79
2021/09/19 08:14:58;;;;;;;;;13.33;11.67;;;;;;;;5095852;27;45557;-79
2021/09/19 08:17:24;;;;;;;;;14.75;13.50;;;;;;;;5094397;27;45448;-80
2021/09/19 08:19:49;;;;;;;;;17.33;13.67;;;;;;;;5090310;27;45961;-80
2021/09/19 08:22:14;;;;;;;;;16.00;12.75;;;;;;;;5095993;27;45523;-80
2021/09/19 08:24:39;;;;;;;;;12.33;12.00;;;;;;;;5096273;27;45544;-80
2021/09/19 08:27:07;;;;;;;;;15.00;14.00;;;;;;;;5099684;27;45357;-80
2021/09/19 08:29:32;;;;;;;;;12.50;12.50;;;;;;;;5095615;27;46056;-80
2021/09/19 08:31:57;;;;;;;;;18.00;14.00;;;;;;;;5087233;27;45516;-79
2021/09/19 08:34:23;;;;;;;;;12.50;12.50;;;;;;;;5097916;27;45481;-79
2021/09/19 08:36:48;;;;;;;;;11.67;11.33;;;;;;;;5097775;27;45615;-79
2021/09/19 08:39:13;;;;;;;;;12.33;10.67;;;;;;;;5092721;27;46199;-79
2021/09/19 08:41:38;;;;;;;;;10.50;10.50;;;;;;;;5093691;27;45642;-79
2021/09/19 08:44:04;;;;;;;;;16.00;14.00;;;;;;;;5087355;27;45626;-79
2021/09/19 08:46:30;;;;;;;;;14.25;13.00;;;;;;;;5100266;27;45489;-79
2021/09/19 08:48:55;;;;;;;;;14.50;13.00;;;;;;;;5100122;27;45530;-79
2021/09/19 08:51:20;;;;;;;;;14.50;12.75;;;;;;;;5097834;27;45607;-79
2021/09/19 08:53:46;;;;;;;;;12.50;11.25;;;;;;;;5095535;27;45447;-79
2021/09/19 08:56:11;;;;;;;;;11.75;11.75;;;;;;;;5095407;27;45641;-79
2021/09/19 08:58:38;;;;;;;;;14.33;14.33;;;;;;;;5097480;27;46038;-79
2021/09/19 09:01:04;;;;;;;;;11.00;11.00;;;;;;;;5097274;27;45535;-79
2021/09/19 09:03:30;;;;;;;;;11.50;11.25;;;;;;;;5096727;27;45363;-79
2021/09/19 09:06:05;;;;;;;;;11.50;11.50;;;;;;;;5094879;27;45662;-79
2021/09/19 09:08:31;;;;;;;;;11.75;11.75;;;;;;;;5082674;27;45472;-65
2021/09/19 09:10:58;;;;;;;;;13.50;12.75;;;;;;;;5090118;27;45395;-65
2021/09/19 09:13:26;;;;;;;;;12.75;11.25;;;;;;;;5096447;27;45445;-65
2021/09/19 09:16:01;;;;;;;;;11.75;10.00;;;;;;;;5095067;27;45789;-65
2021/09/19 09:18:29;;;;;;;;;11.50;10.00;;;;;;;;5097640;27;45606;-65
2021/09/19 09:21:03;;;;;;;;;13.00;12.75;;;;;;;;5096073;27;45672;-66
2021/09/19 09:23:35;;;;;;;;;11.25;10.50;;;;;;;;5096093;27;45519;-65
2021/09/19 09:26:12;;;;;;;;;11.75;10.00;;;;;;;;5086094;27;45686;-66
2021/09/19 09:28:43;;;;;;;;;11.50;11.50;;;;;;;;5096870;27;46136;-65
2021/09/19 09:31:09;;;;;;;;;12.25;11.75;;;;;;;;5102624;27;45434;-65
2021/09/19 09:33:34;;;;;;;;;10.50;10.50;;;;;;;;5095744;27;45582;-65
2021/09/19 09:36:05;;;;;;;;;13.00;11.00;;;;;;;;5095793;27;45542;-65
2021/09/19 09:38:30;;;;;;;;;11.00;10.25;;;;;;;;5090126;27;47180;-66
2021/09/19 09:40:56;;;;;;;;;13.00;11.00;;;;;;;;5092965;27;45361;-65
2021/09/19 09:43:22;;;;;;;;;11.25;9.50;;;;;;;;5098908;27;45660;-66
2021/09/19 09:45:48;;;;;;;;;12.67;12.67;;;;;;;;5096884;27;45469;-65
2021/09/19 09:48:24;;;;;;;;;14.00;10.75;;;;;;;;5091380;27;45543;-65
2021/09/19 09:50:50;;;;;;;;;10.75;10.00;;;;;;;;5089961;27;45851;-68
2021/09/19 09:53:15;;;;;;;;;8.25;8.25;;;;;;;;5092795;27;45853;-65
2021/09/19 09:55:44;;;;;;;;;11.25;10.75;;;;;;;;5092520;27;45445;-65
2021/09/19 09:58:10;;;;;;;;;12.00;10.25;;;;;;;;5096293;27;45375;-65
2021/09/19 10:00:36;;;;;;;;;10.75;10.25;;;;;;;;5090787;27;45413;-65
2021/09/19 10:03:01;;;;;;;;;11.00;10.75;;;;;;;;5090326;27;45641;-65
2021/09/19 10:05:28;;;;;;;;;10.00;8.75;;;;;;;;5097756;27;45582;-65
2021/09/19 10:07:53;;;;;;;;;10.75;10.75;;;;;;;;5091726;27;45530;-66
2021/09/19 10:10:20;;;;;;;;;9.75;8.00;;;;;;;;5097783;27;45532;-69
2021/09/19 10:12:47;;;;;;;;;11.25;10.00;;;;;;;;5091029;27;46159;-65
2021/09/19 10:15:13;;;;;;;;;13.00;11.75;;;;;;;;5092050;27;45623;-65
2021/09/19 10:17:38;;;;;;;;;16.75;12.75;;;;;;;;5097786;27;46199;-64
2021/09/19 10:20:08;;;;;;;;;11.00;11.00;;;;;;;;5093117;27;45546;-65
2021/09/19 10:22:35;;;;;;;;;15.00;12.00;;;;;;;;5095590;27;45544;-65
2021/09/19 10:25:01;;;;;;;;;11.25;10.00;;;;;;;;5102571;27;45695;-83
2021/09/19 10:27:30;;;;;;;;;12.00;11.00;;;;;;;;5094470;27;45873;-83
2021/09/19 10:29:59;;;;;;;;;10.00;10.00;;;;;;;;5093237;27;45659;-83
2021/09/19 10:32:32;;;;;;;;;14.25;12.00;;;;;;;;5094433;27;45736;-83
2021/09/19 10:34:57;;;;;;;;;15.75;11.25;;;;;;;;5091482;27;45429;-82
2021/09/19 10:37:42;;;;;;;;;13.33;11.33;;;;;;;;5097219;27;45887;-83
2021/09/19 10:40:07;;;;;;;;;13.00;11.50;;;;;;;;5086665;27;45650;-83
2021/09/19 10:42:38;;;;;;;;;17.50;13.50;;;;;;;;5092369;27;45734;-83
2021/09/19 10:45:06;;;;;;;;;14.75;11.25;;;;;;;;5093997;27;45457;-83
2021/09/19 10:47:36;;;;;;;;;13.25;13.25;;;;;;;;5084449;27;45429;-83
2021/09/19 10:50:24;;;;;;;;;13.25;12.00;;;;;;;;5102176;27;45537;-83
2021/09/19 10:52:51;;;;;;;;;12.00;10.25;;;;;;;;5097907;27;45471;-83
2021/09/19 10:55:21;;;;;;;;;10.75;10.75;;;;;;;;5078069;27;45769;-83
2021/09/19 10:57:52;;;;;;;;;11.00;10.00;;;;;;;;5093705;27;46110;-83
2021/09/19 11:00:18;;;;;;;;;11.75;10.00;;;;;;;;5093113;27;45697;-82
2021/09/19 11:03:02;;;;;;;;;12.00;12.00;;;;;;;;5076608;27;45549;-83
2021/09/19 11:05:27;;;;;;;;;13.50;9.50;;;;;;;;5090772;27;45576;-83
2021/09/19 11:08:04;;;;;;;;;14.67;10.33;;;;;;;;5090854;27;46656;-83
2021/09/19 11:10:30;;;;;;;;;13.50;12.00;;;;;;;;5082149;27;45526;-83
2021/09/19 11:12:55;;;;;;;;;13.00;12.00;;;;;;;;5094365;27;45356;-83
2021/09/19 11:15:25;;;;;;;;;10.00;10.00;;;;;;;;5095390;27;45751;-84
2021/09/19 11:17:51;;;;;;;;;9.25;8.50;;;;;;;;5090799;27;45472;-83
2021/09/19 11:20:22;;;;;;;;;12.75;11.50;;;;;;;;5094517;27;45600;-81
2021/09/19 11:23:16;;;;;;;;;9.75;9.50;;;;;;;;5092463;27;46706;-83
2021/09/19 11:25:41;;;;;;;;;11.75;11.75;;;;;;;;5094239;27;45656;-83
2021/09/19 11:28:09;;;;;;;;;10.00;10.00;;;;;;;;5092556;27;46207;-83
2021/09/19 11:30:34;;;;;;;;;11.75;10.50;;;;;;;;5094013;27;45837;-83
2021/09/19 11:33:00;;;;;;;;;12.00;10.33;;;;;;;;5096073;27;45624;-82
2021/09/19 11:35:25;;;;;;;;;10.00;9.75;;;;;;;;5095274;27;45528;-83
2021/09/19 11:38:00;;;;;;;;;10.25;10.00;;;;;;;;5092852;27;46142;-84
2021/09/19 11:40:26;;;;;;;;;10.25;9.25;;;;;;;;5097266;27;45816;-83
2021/09/19 11:42:53;;;;;;;;;13.00;11.00;;;;;;;;5091009;27;45771;-83
2021/09/19 11:45:20;;;;;;;;;11.75;10.75;;;;;;;;5097439;27;45588;-83
2021/09/19 11:47:48;;;;;;;;;11.75;11.00;;;;;;;;5095871;27;46808;-83
2021/09/19 11:50:13;;;;;;;;;12.00;10.50;;;;;;;;5090194;27;46290;-83
2021/09/19 11:52:39;;;;;;;;;14.00;12.00;;;;;;;;5090752;27;45443;-84
2021/09/19 11:55:04;;;;;;;;;16.00;15.00;;;;;;;;5097728;27;45586;-84
2021/09/19 11:57:30;;;;;;;;;13.25;12.50;;;;;;;;5093701;27;46613;-83
2021/09/19 12:00:02;;;;;;;;;13.75;12.75;;;;;;;;5095146;27;45428;-83
2021/09/19 12:02:30;;;;;;;;;16.50;14.50;;;;;;;;5091670;27;45535;-83
2021/09/19 12:04:56;;;;;;;;;14.75;14.50;;;;;;;;5091675;27;45481;-84
2021/09/19 12:07:23;;;;;;;;;14.25;12.00;;;;;;;;5093736;27;46000;-83
2021/09/19 12:09:51;;;;;;;;;16.00;15.50;;;;;;;;5096970;27;45932;-84
2021/09/19 12:12:18;;;;;;;;;15.25;15.25;;;;;;;;5092369;27;45764;-82
2021/09/19 12:14:45;;;;;;;;;19.75;17.00;;;;;;;;5101190;27;48974;-83
2021/09/19 12:17:11;;;;;;;;;16.75;16.75;;;;;;;;5091576;27;46238;-83
2021/09/19 12:19:38;;;;;;;;;18.75;17.50;;;;;;;;5091211;27;45627;-82
2021/09/19 12:22:05;;;;;;;;;16.50;16.50;;;;;;;;5093694;27;45895;-80
2021/09/19 12:24:32;;;;;;;;;22.00;19.50;;;;;;;;5079305;27;45381;-82
2021/09/19 12:27:13;;;;;;;;;20.00;18.75;;;;;;;;5092540;27;45414;-82
2021/09/19 12:29:39;;;;;;;;;20.00;19.00;;;;;;;;5090065;27;51436;-81
2021/09/19 12:32:05;;;;;;;;;18.75;17.75;;;;;;;;5087807;27;46436;-82
2021/09/19 12:34:31;;;;;;;;;20.25;19.25;;;;;;;;5086141;27;45667;-83
2021/09/19 12:36:56;;;;;;;;;19.50;15.75;;;;;;;;5091129;27;45542;-82
2021/09/19 12:39:23;;;;;;;;;20.00;18.25;;;;;;;;5084676;27;46510;-82
2021/09/19 12:41:50;;;;;;;;;20.50;18.00;;;;;;;;5089040;27;45583;-82
2021/09/19 12:44:17;;;;;;;;;19.75;18.25;;;;;;;;5087347;27;45425;-84
2021/09/19 12:46:44;;;;;;;;;18.50;17.00;;;;;;;;5087338;27;46750;-85
2021/09/19 12:49:16;;;;;;;;;17.00;17.00;;;;;;;;5089973;27;45446;-82
2021/09/19 12:51:42;;;;;;;;;16.25;16.25;;;;;;;;5087173;27;45588;-83
2021/09/19 12:54:21;;;;;;;;;18.75;18.00;;;;;;;;5083594;27;45529;-82
2021/09/19 12:56:47;;;;;;;;;17.25;15.75;;;;;;;;5088322;27;46469;-82
2021/09/19 12:59:12;;;;;;;;;15.50;14.25;;;;;;;;5093603;27;45595;-83
2021/09/19 13:01:38;;;;;;;;;13.00;13.00;;;;;;;;5090230;27;45528;-79
2021/09/19 13:04:03;;;;;;;;;15.75;15.25;;;;;;;;5088990;27;45450;-80
2021/09/19 13:06:29;;;;;;;;;16.75;15.75;;;;;;;;5087215;27;45558;-79
2021/09/19 13:08:56;;;;;;;;;17.25;15.50;;;;;;;;5084846;27;45557;-78
2021/09/19 13:11:21;;;;;;;;;15.50;15.25;;;;;;;;5086002;27;45514;-75
2021/09/19 13:13:47;;;;;;;;;12.25;12.00;;;;;;;;5078446;27;45515;-76
2021/09/19 13:16:12;;;;;;;;;12.50;12.50;;;;;;;;5088020;27;46413;-76
2021/09/19 13:18:37;;;;;;;;;14.00;13.00;;;;;;;;5086164;27;45892;-76
2021/09/19 13:21:03;;;;;;;;;15.00;13.25;;;;;;;;5085867;27;45561;-75
2021/09/19 13:23:29;;;;;;;;;14.00;12.75;;;;;;;;5087670;27;45704;-76
2021/09/19 13:25:54;;;;;;;;;11.25;11.25;;;;;;;;5087135;27;46717;-75
2021/09/19 13:28:20;;;;;;;;;14.50;13.00;;;;;;;;5094079;27;45579;-75
2021/09/19 13:30:45;;;;;;;;;10.50;9.25;;;;;;;;5087712;27;45517;-75
2021/09/19 13:33:11;;;;;;;;;13.00;13.00;;;;;;;;5085595;27;45436;-75
2021/09/19 13:35:36;;;;;;;;;11.25;11.25;;;;;;;;5089025;27;46099;-74
2021/09/19 13:38:02;;;;;;;;;11.25;11.25;;;;;;;;5090936;27;45698;-76
2021/09/19 13:40:28;;;;;;;;;12.50;11.00;;;;;;;;5094287;27;45619;-76
2021/09/19 13:42:53;;;;;;;;;9.50;9.00;;;;;;;;5084979;27;45443;-75
2021/09/19 13:45:19;;;;;;;;;8.00;8.00;;;;;;;;5078757;27;46727;-76
2021/09/19 13:47:44;;;;;;;;;10.00;10.00;;;;;;;;5082980;27;47264;-76
2021/09/19 13:50:10;;;;;;;;;8.00;7.50;;;;;;;;5074139;27;45634;-76
2021/09/19 13:52:36;;;;;;;;;10.50;10.50;;;;;;;;5091535;27;45508;-77
2021/09/19 13:55:01;;;;;;;;;8.00;8.00;;;;;;;;5069905;27;47045;-73
2021/09/19 13:57:27;;;;;;;;;11.75;10.00;;;;;;;;5085991;27;45474;-76
2021/09/19 13:59:52;;;;;;;;;8.25;8.25;;;;;;;;5075679;27;45490;-76
2021/09/19 14:02:18;;;;;;;;;9.50;7.50;;;;;;;;5089721;27;45590;-75
2021/09/19 14:04:43;;;;;;;;;10.00;8.75;;;;;;;;5091225;27;47604;-75
2021/09/19 14:07:09;;;;;;;;;7.75;7.75;;;;;;;;5092424;27;45552;-75
2021/09/19 14:09:34;;;;;;;;;9.00;8.00;;;;;;;;5088668;27;45438;-75
2021/09/19 14:12:00;;;;;;;;;9.50;8.50;;;;;;;;5087317;27;45534;-75
2021/09/19 14:14:26;;;;;;;;;10.00;9.50;;;;;;;;5088994;27;45550;-75